createdAt,value
2017-05-01T00:00:00.045Z,1001.07
2017-05-01T00:00:40.799Z,1001.09
2017-05-01T00:01:21.545Z,1001.02
2017-05-01T00:02:02.309Z,1001.01
2017-05-01T00:02:43.064Z,1001.03
2017-05-01T00:03:23.813Z,1001.03
2017-05-01T00:04:04.595Z,1001.04
2017-05-01T00:04:45.328Z,1001.06
2017-05-01T00:05:26.079Z,1001.02
2017-05-01T00:06:06.871Z,1000.97
2017-05-01T00:06:47.588Z,1000.99
2017-05-01T00:07:28.349Z,1001.01
2017-05-01T00:08:09.107Z,1000.98
2017-05-01T00:08:49.761Z,1000.93
2017-05-01T00:09:30.333Z,1000.89
2017-05-01T00:10:11.034Z,1000.92
2017-05-01T00:10:51.822Z,1000.89
2017-05-01T00:11:32.576Z,1000.94
2017-05-01T00:12:13.166Z,1000.92
2017-05-01T00:12:53.957Z,1000.88
2017-05-01T00:13:34.622Z,1000.91
2017-05-01T00:14:15.389Z,1000.89
2017-05-01T00:14:56.147Z,1000.88
2017-05-01T00:15:36.901Z,1000.89
2017-05-01T00:16:17.657Z,1000.92
2017-05-01T00:16:58.412Z,1000.89
2017-05-01T00:17:39.167Z,1000.9
2017-05-01T00:18:19.921Z,1000.91
2017-05-01T00:19:00.687Z,1000.91
2017-05-01T00:19:41.434Z,1000.89
2017-05-01T00:20:22.189Z,1000.94
2017-05-01T00:21:02.945Z,1000.93
2017-05-01T00:21:43.702Z,1000.88
2017-05-01T00:22:24.458Z,1000.9
2017-05-01T00:23:05.208Z,1000.87
2017-05-01T00:23:45.965Z,1000.91
2017-05-01T00:24:26.521Z,1000.91
2017-05-01T00:25:07.160Z,1000.86
2017-05-01T00:25:47.924Z,1000.88
2017-05-01T00:26:28.499Z,1000.86
2017-05-01T00:27:09.128Z,1000.92
2017-05-01T00:27:49.883Z,1000.89
2017-05-01T00:28:30.434Z,1000.88
2017-05-01T00:29:11.187Z,1000.92
2017-05-01T00:29:51.943Z,1000.87
2017-05-01T00:30:32.519Z,1000.84
2017-05-01T00:31:13.247Z,1000.88
2017-05-01T00:31:54.004Z,1000.9
2017-05-01T00:32:34.573Z,1000.88
2017-05-01T00:33:15.300Z,1000.85
2017-05-01T00:33:56.076Z,1000.89
2017-05-01T00:34:36.709Z,1000.83
2017-05-01T00:35:17.430Z,1000.85
2017-05-01T00:35:58.115Z,1000.8
2017-05-01T00:36:38.881Z,1000.86
2017-05-01T00:37:19.512Z,1000.83
2017-05-01T00:38:00.258Z,1000.85
2017-05-01T00:38:41.957Z,1000.86
2017-05-01T00:39:22.715Z,1000.84
2017-05-01T00:40:03.352Z,1000.84
2017-05-01T00:40:44.239Z,1000.81
2017-05-01T00:41:25.099Z,1000.81
2017-05-01T00:42:05.847Z,1000.81
2017-05-01T00:42:46.409Z,1000.78
2017-05-01T00:43:27.969Z,1000.81
2017-05-01T00:44:08.728Z,1000.82
2017-05-01T00:44:49.482Z,1000.81
2017-05-01T00:45:30.225Z,1000.83
2017-05-01T00:46:10.980Z,1000.82
2017-05-01T00:46:51.779Z,1000.79
2017-05-01T00:47:32.492Z,1000.78
2017-05-01T00:48:13.249Z,1000.82
2017-05-01T00:48:54.011Z,1000.8
2017-05-01T00:49:34.773Z,1000.82
2017-05-01T00:50:15.513Z,1000.86
2017-05-01T00:50:56.269Z,1000.84
2017-05-01T00:51:37.062Z,1000.88
2017-05-01T00:52:17.784Z,1000.86
2017-05-01T00:52:58.437Z,1000.86
2017-05-01T00:53:39.148Z,1000.83
2017-05-01T00:54:19.965Z,1000.82
2017-05-01T00:55:00.534Z,1000.84
2017-05-01T00:55:41.226Z,1000.83
2017-05-01T00:56:21.917Z,1000.79
2017-05-01T00:57:02.563Z,1000.79
2017-05-01T00:57:43.149Z,1000.82
2017-05-01T00:58:23.828Z,1000.8
2017-05-01T00:59:04.544Z,1000.81
2017-05-01T00:59:45.185Z,1000.81
2017-05-01T01:00:25.830Z,1000.81
2017-05-01T01:01:06.483Z,1000.86
2017-05-01T01:01:47.180Z,1000.85
2017-05-01T01:02:27.815Z,1000.87
2017-05-01T01:03:08.443Z,1000.91
2017-05-01T01:03:49.101Z,1000.86
2017-05-01T01:04:29.755Z,1000.88
2017-05-01T01:05:10.913Z,1000.88
2017-05-01T01:05:51.586Z,1000.89
2017-05-01T01:06:32.227Z,1000.87
2017-05-01T01:07:12.880Z,1000.9
2017-05-01T01:07:53.529Z,1000.94
2017-05-01T01:08:34.250Z,1000.92
2017-05-01T01:09:14.840Z,1000.91
2017-05-01T01:09:55.499Z,1000.89
2017-05-01T01:10:36.138Z,1000.89
2017-05-01T01:11:16.791Z,1000.92
2017-05-01T01:11:57.448Z,1000.92
2017-05-01T01:12:38.139Z,1000.93
2017-05-01T01:13:18.794Z,1000.9
2017-05-01T01:13:59.376Z,1000.93
2017-05-01T01:14:40.100Z,1000.85
2017-05-01T01:15:20.756Z,1000.94
2017-05-01T01:16:01.334Z,1000.97
2017-05-01T01:16:42.974Z,1000.91
2017-05-01T01:17:23.631Z,1000.88
2017-05-01T01:18:04.187Z,1000.93
2017-05-01T01:18:45.913Z,1000.88
2017-05-01T01:19:26.617Z,1000.91
2017-05-01T01:20:07.170Z,1000.93
2017-05-01T01:20:47.880Z,1000.93
2017-05-01T01:21:28.599Z,1000.93
2017-05-01T01:22:09.331Z,1000.87
2017-05-01T01:22:49.886Z,1000.91
2017-05-01T01:23:30.516Z,1000.97
2017-05-01T01:24:11.185Z,1000.95
2017-05-01T01:24:51.868Z,1000.97
2017-05-01T01:25:32.434Z,1000.96
2017-05-01T01:26:13.155Z,1000.98
2017-05-01T01:26:53.843Z,1000.99
2017-05-01T01:27:34.425Z,1000.93
2017-05-01T01:28:15.052Z,1000.94
2017-05-01T01:28:55.729Z,1000.95
2017-05-01T01:29:36.351Z,1000.96
2017-05-01T01:30:17.002Z,1000.92
2017-05-01T01:30:58.682Z,1000.93
2017-05-01T01:31:39.335Z,1000.91
2017-05-01T01:32:19.985Z,1000.98
2017-05-01T01:33:00.635Z,1000.92
2017-05-01T01:33:41.296Z,1000.99
2017-05-01T01:34:21.844Z,1000.94
2017-05-01T01:35:02.452Z,1000.96
2017-05-01T01:35:43.148Z,1000.96
2017-05-01T01:36:23.800Z,1000.95
2017-05-01T01:37:04.367Z,1000.95
2017-05-01T01:37:45.016Z,1000.99
2017-05-01T01:38:25.692Z,1000.97
2017-05-01T01:39:06.312Z,1000.92
2017-05-01T01:39:46.887Z,1000.94
2017-05-01T01:40:27.508Z,1000.95
2017-05-01T01:41:08.166Z,1000.97
2017-05-01T01:41:48.820Z,1000.91
2017-05-01T01:42:29.476Z,1000.96
2017-05-01T01:43:11.153Z,1000.95
2017-05-01T01:43:51.805Z,1000.93
2017-05-01T01:44:33.377Z,1000.97
2017-05-01T01:45:14.032Z,1000.92
2017-05-01T01:45:54.679Z,1000.89
2017-05-01T01:46:35.332Z,1000.92
2017-05-01T01:47:17.009Z,1000.92
2017-05-01T01:47:57.674Z,1000.92
2017-05-01T01:48:38.315Z,1000.93
2017-05-01T01:49:19.991Z,1000.93
2017-05-01T01:50:00.646Z,1000.94
2017-05-01T01:50:42.324Z,1000.9
2017-05-01T01:51:22.974Z,1000.89
2017-05-01T01:52:03.630Z,1000.91
2017-05-01T01:52:44.281Z,1000.9
2017-05-01T01:53:24.935Z,1000.92
2017-05-01T01:54:05.511Z,1000.87
2017-05-01T01:54:46.098Z,1000.88
2017-05-01T01:55:26.721Z,1000.87
2017-05-01T01:56:07.340Z,1000.87
2017-05-01T01:56:47.903Z,1000.88
2017-05-01T01:57:28.491Z,1000.87
2017-05-01T01:58:09.099Z,1000.87
2017-05-01T01:58:49.745Z,1000.86
2017-05-01T01:59:30.339Z,1000.84
2017-05-01T02:00:10.964Z,1000.85
2017-05-01T02:00:51.606Z,1000.86
2017-05-01T02:01:32.170Z,1000.87
2017-05-01T02:02:12.781Z,1000.87
2017-05-01T02:02:53.457Z,1000.87
2017-05-01T02:03:34.050Z,1000.92
2017-05-01T02:04:15.485Z,1000.89
2017-05-01T02:04:56.135Z,1000.88
2017-05-01T02:05:36.704Z,1000.86
2017-05-01T02:06:17.387Z,1000.86
2017-05-01T02:06:58.018Z,1000.85
2017-05-01T02:07:38.641Z,1000.85
2017-05-01T02:08:19.202Z,1000.87
2017-05-01T02:08:59.796Z,1000.84
2017-05-01T02:09:40.399Z,1000.81
2017-05-01T02:10:20.968Z,1000.79
2017-05-01T02:11:01.598Z,1000.84
2017-05-01T02:11:42.252Z,1000.82
2017-05-01T02:12:22.838Z,1000.81
2017-05-01T02:13:03.451Z,1000.82
2017-05-01T02:13:44.109Z,1000.84
2017-05-01T02:14:24.681Z,1000.78
2017-05-01T02:15:05.312Z,1000.79
2017-05-01T02:15:45.963Z,1000.8
2017-05-01T02:16:26.629Z,1000.74
2017-05-01T02:17:07.268Z,1000.78
2017-05-01T02:17:47.923Z,1000.75
2017-05-01T02:18:28.577Z,1000.74
2017-05-01T02:19:09.252Z,1000.73
2017-05-01T02:19:49.884Z,1000.74
2017-05-01T02:20:30.534Z,1000.74
2017-05-01T02:21:11.188Z,1000.73
2017-05-01T02:21:51.837Z,1000.7
2017-05-01T02:22:32.488Z,1000.72
2017-05-01T02:23:13.145Z,1000.74
2017-05-01T02:23:53.808Z,1000.75
2017-05-01T02:24:34.451Z,1000.76
2017-05-01T02:25:16.127Z,1000.74
2017-05-01T02:25:56.781Z,1000.72
2017-05-01T02:26:37.435Z,1000.72
2017-05-01T02:27:18.086Z,1000.74
2017-05-01T02:27:58.734Z,1000.69
2017-05-01T02:28:39.391Z,1000.71
2017-05-01T02:29:20.041Z,1000.69
2017-05-01T02:30:00.696Z,1000.68
2017-05-01T02:30:41.452Z,1000.66
2017-05-01T02:31:23.027Z,1000.63
2017-05-01T02:32:03.678Z,1000.7
2017-05-01T02:32:44.335Z,1000.68
2017-05-01T02:33:24.989Z,1000.67
2017-05-01T02:34:05.638Z,1000.71
2017-05-01T02:34:46.201Z,1000.67
2017-05-01T02:35:26.841Z,1000.75
2017-05-01T02:36:07.507Z,1000.71
2017-05-01T02:36:48.091Z,1000.67
2017-05-01T02:37:28.794Z,1000.68
2017-05-01T02:38:09.448Z,1000.67
2017-05-01T02:38:50.056Z,1000.67
2017-05-01T02:39:30.649Z,1000.68
2017-05-01T02:40:11.309Z,1000.66
2017-05-01T02:40:51.886Z,1000.7
2017-05-01T02:41:32.527Z,1000.68
2017-05-01T02:42:13.166Z,1000.66
2017-05-01T02:42:53.741Z,1000.64
2017-05-01T02:43:34.366Z,1000.66
2017-05-01T02:44:15.020Z,1000.63
2017-05-01T02:44:55.674Z,1000.63
2017-05-01T02:45:36.321Z,1000.64
2017-05-01T02:46:16.979Z,1000.62
2017-05-01T02:46:57.634Z,1000.61
2017-05-01T02:47:38.286Z,1000.62
2017-05-01T02:48:18.938Z,1000.63
2017-05-01T02:48:59.591Z,1000.56
2017-05-01T02:49:40.162Z,1000.6
2017-05-01T02:50:20.871Z,1000.63
2017-05-01T02:51:01.458Z,1000.66
2017-05-01T02:51:42.102Z,1000.64
2017-05-01T02:52:22.681Z,1000.63
2017-05-01T02:53:03.267Z,1000.69
2017-05-01T02:53:43.971Z,1000.69
2017-05-01T02:54:24.607Z,1000.69
2017-05-01T02:55:05.200Z,1000.67
2017-05-01T02:55:45.873Z,1000.66
2017-05-01T02:56:26.481Z,1000.7
2017-05-01T02:57:07.326Z,1000.68
2017-05-01T02:57:47.906Z,1000.71
2017-05-01T02:58:28.474Z,1000.76
2017-05-01T02:59:09.081Z,1000.76
2017-05-01T02:59:49.727Z,1000.75
2017-05-01T03:00:30.386Z,1000.8
2017-05-01T03:01:11.039Z,1000.77
2017-05-01T03:01:51.692Z,1000.8
2017-05-01T03:02:32.345Z,1000.81
2017-05-01T03:03:12.992Z,1000.85
2017-05-01T03:03:53.646Z,1000.85
2017-05-01T03:04:34.210Z,1000.86
2017-05-01T03:05:14.851Z,1000.89
2017-05-01T03:05:55.417Z,1000.9
2017-05-01T03:06:35.982Z,1000.94
2017-05-01T03:07:16.604Z,1000.88
2017-05-01T03:07:57.257Z,1000.89
2017-05-01T03:08:37.838Z,1000.91
2017-05-01T03:09:18.468Z,1000.93
2017-05-01T03:09:59.128Z,1000.89
2017-05-01T03:10:39.774Z,1000.9
2017-05-01T03:11:20.423Z,1000.93
2017-05-01T03:12:01.072Z,1000.88
2017-05-01T03:12:41.728Z,1000.91
2017-05-01T03:13:22.378Z,1000.91
2017-05-01T03:14:03.029Z,1000.94
2017-05-01T03:14:43.607Z,1000.96
2017-05-01T03:15:24.208Z,1001.01
2017-05-01T03:16:04.891Z,1001.04
2017-05-01T03:16:45.557Z,1001
2017-05-01T03:17:26.126Z,1001
2017-05-01T03:18:06.805Z,1001.01
2017-05-01T03:18:47.506Z,1000.99
2017-05-01T03:19:28.149Z,1000.96
2017-05-01T03:20:09.828Z,1000.95
2017-05-01T03:20:50.477Z,1000.98
2017-05-01T03:21:31.141Z,1000.97
2017-05-01T03:22:11.784Z,1000.98
2017-05-01T03:22:52.439Z,1000.95
2017-05-01T03:23:33.090Z,1000.99
2017-05-01T03:24:13.750Z,1001
2017-05-01T03:24:54.393Z,1001.03
2017-05-01T03:25:35.049Z,1000.99
2017-05-01T03:26:15.702Z,1001
2017-05-01T03:26:56.355Z,1000.98
2017-05-01T03:27:37.009Z,1000.99
2017-05-01T03:28:17.660Z,1000.97
2017-05-01T03:28:58.310Z,1001
2017-05-01T03:29:38.877Z,1001.01
2017-05-01T03:30:19.464Z,1000.93
2017-05-01T03:31:00.069Z,1000.94
2017-05-01T03:31:40.717Z,1000.9
2017-05-01T03:32:21.307Z,1000.89
2017-05-01T03:33:01.972Z,1000.9
2017-05-01T03:33:42.575Z,1000.91
2017-05-01T03:34:23.234Z,1000.9
2017-05-01T03:35:03.798Z,1000.89
2017-05-01T03:35:45.410Z,1000.91
2017-05-01T03:36:26.004Z,1000.9
2017-05-01T03:37:06.657Z,1000.93
2017-05-01T03:37:47.226Z,1000.91
2017-05-01T03:38:32.412Z,1000.9
2017-05-01T03:39:14.044Z,1000.94
2017-05-01T03:39:54.698Z,1000.97
2017-05-01T03:40:35.272Z,1000.91
2017-05-01T03:41:17.954Z,1000.97
2017-05-01T03:41:58.608Z,1000.97
2017-05-01T03:42:39.177Z,1000.93
2017-05-01T03:43:19.812Z,1000.96
2017-05-01T03:44:00.464Z,1000.95
2017-05-01T03:44:41.030Z,1000.91
2017-05-01T03:45:22.374Z,1000.91
2017-05-01T03:46:03.133Z,1000.89
2017-05-01T03:46:43.879Z,1000.9
2017-05-01T03:47:24.448Z,1000.93
2017-05-01T03:48:05.134Z,1000.94
2017-05-01T03:48:45.841Z,1000.94
2017-05-01T03:49:26.593Z,1000.94
2017-05-01T03:50:07.349Z,1000.97
2017-05-01T03:50:48.008Z,1000.96
2017-05-01T03:51:28.661Z,1000.94
2017-05-01T03:52:09.249Z,1000.98
2017-05-01T03:52:49.869Z,1000.96
2017-05-01T03:53:30.518Z,1000.95
2017-05-01T03:54:11.178Z,1000.93
2017-05-01T03:54:51.745Z,1000.98
2017-05-01T03:55:32.476Z,1001
2017-05-01T03:56:13.054Z,1001.03
2017-05-01T03:56:53.623Z,1001
2017-05-01T03:57:34.334Z,1001.02
2017-05-01T03:58:14.986Z,1001.04
2017-05-01T03:58:55.554Z,1001.01
2017-05-01T03:59:36.292Z,1001.08
2017-05-01T04:00:17.045Z,1001.05
2017-05-01T04:00:57.709Z,1001.06
2017-05-01T04:01:38.281Z,1001.12
2017-05-01T04:02:18.911Z,1001.1
2017-05-01T04:02:59.559Z,1001.15
2017-05-01T04:03:45.819Z,1001.14
2017-05-01T04:04:26.503Z,1001.15
2017-05-01T04:05:07.154Z,1001.17
2017-05-01T04:05:47.808Z,1001.19
2017-05-01T04:06:29.483Z,1001.15
2017-05-01T04:07:10.131Z,1001.16
2017-05-01T04:07:50.789Z,1001.18
2017-05-01T04:08:31.437Z,1001.19
2017-05-01T04:09:12.093Z,1001.19
2017-05-01T04:09:52.646Z,1001.15
2017-05-01T04:10:33.292Z,1001.2
2017-05-01T04:11:13.948Z,1001.23
2017-05-01T04:11:54.501Z,1001.21
2017-05-01T04:12:35.152Z,1001.24
2017-05-01T04:13:15.801Z,1001.23
2017-05-01T04:13:56.368Z,1001.26
2017-05-01T04:14:37.007Z,1001.22
2017-05-01T04:15:18.478Z,1001.24
2017-05-01T04:15:59.049Z,1001.23
2017-05-01T04:16:39.628Z,1001.25
2017-05-01T04:17:20.238Z,1001.24
2017-05-01T04:18:00.885Z,1001.23
2017-05-01T04:18:41.452Z,1001.22
2017-05-01T04:19:22.046Z,1001.23
2017-05-01T04:20:02.640Z,1001.2
2017-05-01T04:20:43.290Z,1001.22
2017-05-01T04:21:23.861Z,1001.23
2017-05-01T04:22:04.455Z,1001.21
2017-05-01T04:22:45.056Z,1001.2
2017-05-01T04:23:25.695Z,1001.23
2017-05-01T04:24:06.263Z,1001.22
2017-05-01T04:24:46.875Z,1001.2
2017-05-01T04:25:27.514Z,1001.23
2017-05-01T04:26:08.181Z,1001.2
2017-05-01T04:26:48.824Z,1001.23
2017-05-01T04:27:29.476Z,1001.22
2017-05-01T04:28:10.140Z,1001.23
2017-05-01T04:28:50.765Z,1001.24
2017-05-01T04:29:31.418Z,1001.25
2017-05-01T04:30:12.017Z,1001.27
2017-05-01T04:30:52.588Z,1001.26
2017-05-01T04:31:33.222Z,1001.28
2017-05-01T04:32:13.893Z,1001.3
2017-05-01T04:32:54.451Z,1001.29
2017-05-01T04:33:35.078Z,1001.3
2017-05-01T04:34:15.737Z,1001.31
2017-05-01T04:34:56.391Z,1001.32
2017-05-01T04:35:37.039Z,1001.31
2017-05-01T04:36:17.616Z,1001.33
2017-05-01T04:36:58.240Z,1001.3
2017-05-01T04:37:38.891Z,1001.32
2017-05-01T04:38:19.549Z,1001.3
2017-05-01T04:39:00.203Z,1001.34
2017-05-01T04:39:40.776Z,1001.31
2017-05-01T04:40:21.406Z,1001.34
2017-05-01T04:41:02.059Z,1001.33
2017-05-01T04:41:42.622Z,1001.35
2017-05-01T04:42:23.272Z,1001.34
2017-05-01T04:43:03.914Z,1001.33
2017-05-01T04:43:44.457Z,1001.39
2017-05-01T04:44:25.114Z,1001.33
2017-05-01T04:45:05.764Z,1001.37
2017-05-01T04:45:46.352Z,1001.36
2017-05-01T04:46:26.941Z,1001.34
2017-05-01T04:47:07.618Z,1001.37
2017-05-01T04:47:48.273Z,1001.43
2017-05-01T04:48:28.844Z,1001.39
2017-05-01T04:49:09.446Z,1001.4
2017-05-01T04:49:50.124Z,1001.39
2017-05-01T04:50:30.779Z,1001.42
2017-05-01T04:51:11.345Z,1001.41
2017-05-01T04:51:51.980Z,1001.43
2017-05-01T04:52:32.636Z,1001.43
2017-05-01T04:53:13.300Z,1001.46
2017-05-01T04:53:53.941Z,1001.48
2017-05-01T04:54:34.594Z,1001.47
2017-05-01T04:55:15.247Z,1001.48
2017-05-01T04:55:55.806Z,1001.42
2017-05-01T04:56:36.404Z,1001.45
2017-05-01T04:57:16.997Z,1001.43
2017-05-01T04:57:57.653Z,1001.51
2017-05-01T04:58:38.223Z,1001.49
2017-05-01T04:59:18.807Z,1001.48
2017-05-01T04:59:59.407Z,1001.5
2017-05-01T05:00:39.980Z,1001.52
2017-05-01T05:01:20.620Z,1001.51
2017-05-01T05:02:01.265Z,1001.53
2017-05-01T05:02:41.839Z,1001.53
2017-05-01T05:03:22.473Z,1001.53
2017-05-01T05:04:03.119Z,1001.51
2017-05-01T05:04:43.694Z,1001.55
2017-05-01T05:05:24.322Z,1001.57
2017-05-01T05:06:04.977Z,1001.57
2017-05-01T05:06:45.544Z,1001.6
2017-05-01T05:07:26.133Z,1001.59
2017-05-01T05:08:06.721Z,1001.59
2017-05-01T05:08:48.307Z,1001.61
2017-05-01T05:09:28.891Z,1001.6
2017-05-01T05:10:09.613Z,1001.59
2017-05-01T05:10:50.265Z,1001.64
2017-05-01T05:11:30.918Z,1001.63
2017-05-01T05:12:11.570Z,1001.68
2017-05-01T05:12:52.223Z,1001.66
2017-05-01T05:13:32.879Z,1001.68
2017-05-01T05:14:13.526Z,1001.71
2017-05-01T05:14:54.181Z,1001.72
2017-05-01T05:15:34.829Z,1001.73
2017-05-01T05:16:15.490Z,1001.76
2017-05-01T05:16:56.139Z,1001.75
2017-05-01T05:17:36.794Z,1001.78
2017-05-01T05:18:17.446Z,1001.8
2017-05-01T05:18:58.099Z,1001.77
2017-05-01T05:19:38.753Z,1001.82
2017-05-01T05:20:19.403Z,1001.8
2017-05-01T05:21:00.058Z,1001.81
2017-05-01T05:21:40.709Z,1001.82
2017-05-01T05:22:21.361Z,1001.83
2017-05-01T05:23:02.016Z,1001.81
2017-05-01T05:23:42.664Z,1001.82
2017-05-01T05:24:23.322Z,1001.84
2017-05-01T05:25:05.024Z,1001.85
2017-05-01T05:25:45.654Z,1001.88
2017-05-01T05:26:26.302Z,1001.83
2017-05-01T05:27:06.955Z,1001.86
2017-05-01T05:27:47.613Z,1001.84
2017-05-01T05:28:28.261Z,1001.86
2017-05-01T05:29:08.922Z,1001.87
2017-05-01T05:29:49.472Z,1001.86
2017-05-01T05:30:30.078Z,1001.85
2017-05-01T05:31:10.667Z,1001.89
2017-05-01T05:31:51.325Z,1001.91
2017-05-01T05:32:31.888Z,1001.94
2017-05-01T05:33:12.582Z,1001.89
2017-05-01T05:33:53.278Z,1001.93
2017-05-01T05:34:33.935Z,1001.95
2017-05-01T05:35:14.505Z,1001.94
2017-05-01T05:35:55.978Z,1001.94
2017-05-01T05:36:36.543Z,1001.93
2017-05-01T05:37:17.167Z,1001.95
2017-05-01T05:37:57.815Z,1001.97
2017-05-01T05:38:38.407Z,1001.96
2017-05-01T05:39:19.085Z,1001.99
2017-05-01T05:39:59.796Z,1002
2017-05-01T05:40:40.567Z,1002
2017-05-01T05:41:21.197Z,1002
2017-05-01T05:42:01.854Z,1002.01
2017-05-01T05:42:43.525Z,1002.02
2017-05-01T05:43:24.179Z,1002.02
2017-05-01T05:44:04.832Z,1002.06
2017-05-01T05:44:45.408Z,1002.08
2017-05-01T05:45:26.100Z,1002.07
2017-05-01T05:46:06.794Z,1002.12
2017-05-01T05:46:47.451Z,1002.11
2017-05-01T05:47:28.021Z,1002.11
2017-05-01T05:48:08.706Z,1002.15
2017-05-01T05:48:49.309Z,1002.13
2017-05-01T05:49:30.065Z,1002.12
2017-05-01T05:50:10.623Z,1002.16
2017-05-01T05:50:51.343Z,1002.15
2017-05-01T05:51:32.020Z,1002.17
2017-05-01T05:52:12.670Z,1002.14
2017-05-01T05:52:53.229Z,1002.11
2017-05-01T05:53:33.940Z,1002.14
2017-05-01T05:54:14.632Z,1002.16
2017-05-01T05:54:55.287Z,1002.14
2017-05-01T05:55:35.945Z,1002.13
2017-05-01T05:56:16.590Z,1002.2
2017-05-01T05:56:57.244Z,1002.18
2017-05-01T05:57:37.893Z,1002.23
2017-05-01T05:58:18.553Z,1002.17
2017-05-01T05:58:59.200Z,1002.22
2017-05-01T05:59:39.753Z,1002.21
2017-05-01T06:00:20.412Z,1002.2
2017-05-01T06:01:01.055Z,1002.21
2017-05-01T06:01:41.617Z,1002.25
2017-05-01T06:02:22.189Z,1002.26
2017-05-01T06:03:02.884Z,1002.26
2017-05-01T06:03:43.564Z,1002.29
2017-05-01T06:04:24.148Z,1002.26
2017-05-01T06:05:04.758Z,1002.26
2017-05-01T06:05:45.421Z,1002.3
2017-05-01T06:06:25.982Z,1002.33
2017-05-01T06:07:06.640Z,1002.35
2017-05-01T06:07:47.282Z,1002.3
2017-05-01T06:08:27.936Z,1002.25
2017-05-01T06:09:08.507Z,1002.28
2017-05-01T06:09:49.187Z,1002.31
2017-05-01T06:10:29.769Z,1002.28
2017-05-01T06:11:10.438Z,1002.27
2017-05-01T06:11:51.094Z,1002.28
2017-05-01T06:12:31.747Z,1002.3
2017-05-01T06:13:12.402Z,1002.32
2017-05-01T06:13:53.040Z,1002.28
2017-05-01T06:14:33.703Z,1002.34
2017-05-01T06:15:14.358Z,1002.33
2017-05-01T06:15:55.012Z,1002.32
2017-05-01T06:16:35.682Z,1002.35
2017-05-01T06:17:16.317Z,1002.35
2017-05-01T06:17:56.992Z,1002.37
2017-05-01T06:18:38.644Z,1002.41
2017-05-01T06:19:19.300Z,1002.41
2017-05-01T06:19:59.951Z,1002.38
2017-05-01T06:20:40.529Z,1002.43
2017-05-01T06:21:22.255Z,1002.4
2017-05-01T06:22:03.142Z,1002.4
2017-05-01T06:22:43.712Z,1002.44
2017-05-01T06:23:24.438Z,1002.44
2017-05-01T06:24:05.023Z,1002.45
2017-05-01T06:24:45.580Z,1002.43
2017-05-01T06:25:26.212Z,1002.48
2017-05-01T06:26:06.859Z,1002.52
2017-05-01T06:26:47.513Z,1002.55
2017-05-01T06:27:28.171Z,1002.59
2017-05-01T06:28:08.820Z,1002.64
2017-05-01T06:28:49.471Z,1002.66
2017-05-01T06:29:30.123Z,1002.67
2017-05-01T06:30:10.784Z,1002.66
2017-05-01T06:30:51.434Z,1002.65
2017-05-01T06:31:32.086Z,1002.65
2017-05-01T06:32:12.740Z,1002.66
2017-05-01T06:32:53.391Z,1002.67
2017-05-01T06:33:34.048Z,1002.67
2017-05-01T06:34:14.701Z,1002.67
2017-05-01T06:34:55.268Z,1002.67
2017-05-01T06:35:36.100Z,1002.68
2017-05-01T06:36:16.626Z,1002.68
2017-05-01T06:36:57.209Z,1002.72
2017-05-01T06:37:37.782Z,1002.7
2017-05-01T06:38:18.407Z,1002.73
2017-05-01T06:38:59.064Z,1002.75
2017-05-01T06:39:39.648Z,1002.74
2017-05-01T06:40:20.272Z,1002.79
2017-05-01T06:41:00.924Z,1002.72
2017-05-01T06:41:41.516Z,1002.8
2017-05-01T06:42:22.184Z,1002.75
2017-05-01T06:43:02.880Z,1002.76
2017-05-01T06:43:43.528Z,1002.76
2017-05-01T06:44:24.091Z,1002.8
2017-05-01T06:45:04.693Z,1002.77
2017-05-01T06:45:45.306Z,1002.77
2017-05-01T06:46:25.869Z,1002.77
2017-05-01T06:47:06.489Z,1002.81
2017-05-01T06:47:47.145Z,1002.8
2017-05-01T06:48:27.796Z,1002.83
2017-05-01T06:49:08.448Z,1002.85
2017-05-01T06:49:49.110Z,1002.86
2017-05-01T06:50:29.685Z,1002.88
2017-05-01T06:51:10.316Z,1002.88
2017-05-01T06:51:50.970Z,1002.92
2017-05-01T06:52:31.537Z,1002.92
2017-05-01T06:53:12.689Z,1002.91
2017-05-01T06:53:53.259Z,1002.91
2017-05-01T06:54:33.815Z,1002.95
2017-05-01T06:55:14.494Z,1002.95
2017-05-01T06:55:55.135Z,1002.94
2017-05-01T06:56:35.808Z,1002.93
2017-05-01T06:57:16.456Z,1002.97
2017-05-01T06:57:57.092Z,1002.96
2017-05-01T06:58:37.753Z,1002.96
2017-05-01T06:59:18.457Z,1002.97
2017-05-01T06:59:59.109Z,1002.97
2017-05-01T07:00:39.761Z,1002.97
2017-05-01T07:01:20.416Z,1002.99
2017-05-01T07:02:00.975Z,1003.01
2017-05-01T07:02:41.619Z,1003
2017-05-01T07:03:22.273Z,1003.01
2017-05-01T07:04:04.975Z,1003.03
2017-05-01T07:04:45.629Z,1003.07
2017-05-01T07:05:27.302Z,1003.11
2017-05-01T07:06:07.955Z,1003.07
2017-05-01T07:06:48.616Z,1003.09
2017-05-01T07:07:29.262Z,1003.12
2017-05-01T07:08:09.912Z,1003.14
2017-05-01T07:08:50.668Z,1003.15
2017-05-01T07:09:33.371Z,1003.19
2017-05-01T07:10:14.026Z,1003.21
2017-05-01T07:10:54.676Z,1003.21
2017-05-01T07:11:35.331Z,1003.22
2017-05-01T07:12:15.986Z,1003.21
2017-05-01T07:12:57.658Z,1003.22
2017-05-01T07:13:38.311Z,1003.25
2017-05-01T07:14:19.990Z,1003.24
2017-05-01T07:15:01.676Z,1003.27
2017-05-01T07:15:42.321Z,1003.29
2017-05-01T07:16:23.080Z,1003.25
2017-05-01T07:17:03.728Z,1003.25
2017-05-01T07:17:44.379Z,1003.28
2017-05-01T07:18:25.034Z,1003.27
2017-05-01T07:19:05.692Z,1003.32
2017-05-01T07:19:46.446Z,1003.34
2017-05-01T07:20:27.022Z,1003.35
2017-05-01T07:21:07.649Z,1003.37
2017-05-01T07:21:48.300Z,1003.39
2017-05-01T07:22:28.952Z,1003.39
2017-05-01T07:23:10.630Z,1003.41
2017-05-01T07:23:51.283Z,1003.46
2017-05-01T07:24:31.937Z,1003.43
2017-05-01T07:25:12.529Z,1003.42
2017-05-01T07:25:53.193Z,1003.43
2017-05-01T07:26:33.791Z,1003.41
2017-05-01T07:27:14.364Z,1003.41
2017-05-01T07:27:56.027Z,1003.39
2017-05-01T07:28:36.680Z,1003.42
2017-05-01T07:29:17.324Z,1003.43
2017-05-01T07:29:57.898Z,1003.42
2017-05-01T07:30:38.483Z,1003.43
2017-05-01T07:31:19.080Z,1003.43
2017-05-01T07:31:59.734Z,1003.4
2017-05-01T07:32:40.357Z,1003.44
2017-05-01T07:33:20.996Z,1003.42
2017-05-01T07:34:01.587Z,1003.44
2017-05-01T07:34:42.249Z,1003.44
2017-05-01T07:35:22.892Z,1003.42
2017-05-01T07:36:03.547Z,1003.42
2017-05-01T07:36:44.208Z,1003.46
2017-05-01T07:37:24.885Z,1003.49
2017-05-01T07:38:05.513Z,1003.46
2017-05-01T07:38:46.164Z,1003.51
2017-05-01T07:39:26.819Z,1003.55
2017-05-01T07:40:07.386Z,1003.53
2017-05-01T07:40:48.024Z,1003.56
2017-05-01T07:41:28.669Z,1003.56
2017-05-01T07:42:09.252Z,1003.54
2017-05-01T07:42:49.878Z,1003.61
2017-05-01T07:43:30.531Z,1003.62
2017-05-01T07:44:11.219Z,1003.63
2017-05-01T07:44:51.837Z,1003.62
2017-05-01T07:45:32.487Z,1003.64
2017-05-01T07:46:13.063Z,1003.64
2017-05-01T07:46:53.643Z,1003.59
2017-05-01T07:47:34.240Z,1003.66
2017-05-01T07:48:14.897Z,1003.64
2017-05-01T07:48:55.460Z,1003.73
2017-05-01T07:49:36.062Z,1003.68
2017-05-01T07:50:16.704Z,1003.7
2017-05-01T07:50:57.297Z,1003.71
2017-05-01T07:51:37.957Z,1003.69
2017-05-01T07:52:18.521Z,1003.69
2017-05-01T07:52:59.111Z,1003.69
2017-05-01T07:53:39.696Z,1003.66
2017-05-01T07:54:20.361Z,1003.67
2017-05-01T07:55:00.929Z,1003.71
2017-05-01T07:55:41.518Z,1003.68
2017-05-01T07:56:22.223Z,1003.73
2017-05-01T07:57:02.874Z,1003.74
2017-05-01T07:57:43.434Z,1003.72
2017-05-01T07:58:24.028Z,1003.75
2017-05-01T07:59:04.633Z,1003.78
2017-05-01T07:59:45.383Z,1003.8
2017-05-01T08:00:25.947Z,1003.78
2017-05-01T08:01:06.551Z,1003.81
2017-05-01T08:01:48.162Z,1003.8
2017-05-01T08:02:28.747Z,1003.81
2017-05-01T08:03:09.453Z,1003.88
2017-05-01T08:03:51.043Z,1003.9
2017-05-01T08:04:31.697Z,1003.9
2017-05-01T08:05:12.272Z,1003.92
2017-05-01T08:05:52.953Z,1003.9
2017-05-01T08:06:33.632Z,1003.96
2017-05-01T08:07:14.257Z,1003.95
2017-05-01T08:07:54.911Z,1004
2017-05-01T08:08:35.560Z,1003.99
2017-05-01T08:09:18.182Z,1004.06
2017-05-01T08:09:58.811Z,1004.06
2017-05-01T08:10:40.525Z,1004.08
2017-05-01T08:11:21.171Z,1004.12
2017-05-01T08:12:01.806Z,1004.09
2017-05-01T08:12:42.455Z,1004.03
2017-05-01T08:13:23.157Z,1004.04
2017-05-01T08:14:03.825Z,1004.03